Airfield :
LOGIN :

Register | Disclaimer

   EN    FR    IT 

 










Legend :    VFR   Marginal VFR   IFR   Intensive IFR   Very Intensive IFR
Visi :
Ceiling :
>= 8 km
>= 3000ft
5 to 8 km
1000 to 3000 ft
1500m to 5 km
500 to 1000 ft
800 to 1500m
200 to 500 ft
< 800m
< 200 ft
Symbols :   Thunderstorms  Fog  Heavy snow  Heavy precipitations  Wind > 20 kt
SIGMETs :     Misc.  Thunderstorms  Icing  Turbulence  Mountain Waves  Volcanic Ashes






- Airport Elevation : 277 ft
- IATA code : JER


EGJJ - Jersey

CURRENT METAR :
  • 291650Z 23014KT 9999 FEW031 BKN036 14/13 Q1017

EXPIRED METARs :
  • 291620Z 23014KT 9999 VCSH FEW016 BKN032 14/13 Q1017
  • 291550Z 24015KT 9000 VCSH FEW009 BKN022 14/13 Q1018
  • 291520Z 24022KT 9999 FEW005 BKN022 14/13 Q1017 RERA
  • 291450Z 24018KT 9000 -RA FEW013 SCT018 OVC020 15/13 Q1017
  • 291420Z 24020KT 9999 FEW017 BKN029 15/13 Q1017

TAF TAF EGJJ
Valid from the 29 at 15:00 until the 30 at 00:00 UTC


291359Z 2915/3000 22016KT 9999 FEW010 BKN020
PROB40
TEMPO 2915/3000 5000 -DZ BKN006
ATIS : +44 1534 498 073



MET'MAP, your aeronautical weather chart ! - Copyright ORBIFLY December 2007 - Disclaimer

ORBIFLY MET'MAP TEAM :

Programming & Development : Alexandra Zaïnal
Concept & original design : Baudouin d'Aumeries
Assistance for programming : Marc-Olivier Méhu
Technical & hardware support : Manuel Goepfert

Contact : metmap@orbifly.com




SOURCES & CREDITS :

   NOAA